Forside
METAR-TAF:

METAR-TAF

Lufthavne :

Webster City Municipal Airport

Webster City, Iowa, USA

Breddekreds: 42-26N, længdekreds: 093-52W, højde: 342 m

Aktuelle vejr

Denne rapport blev lavet for 21 minutter siden, kl. 09:35 UTC
Vind 16 kt fra nord
Temperatur 7°C
Fugtighed 100%
Tryk 1018 hPa
Sigt: 16.1 km
Overskyet i en højde af 900 ft

METAR: KEBS 230935Z AUTO 36016KT 10SM OVC009 07/07 A3005 RMK AO2

Tid: 04:56 (09:56 UTC)


TAF: fraværende

Vejrobservationer og prognoser fra mere end 4000 lufthavne (METAR og TAF).

De gule og røde prikker repræsenterer de meteorologiske stationer.

Flyt musen over at se navnet på stationen.

Så klik over at se vejr observationer og prognoser.

At skifte det kort: Klik på de grønne knapper med et sort kors for at zoome ind; på den grønne knap med en bindestreg for at zoome ud; eller på de grønne pile for tilstødende kort.


METAR-TAF: